Portada
METAR-TAF:

METAR-TAF

Aeroports :

Curaçao, Antilles Neerlandeses

latitud: 12-12N, longitud: 068-58W, altitud: 9 m

Observació

L'informe es va fer fa 32 minuts, a les 08:00 UTC
Vent 12 kt del Est
Temperatura 27°C
Humitat 84%
Pressió 1012 hPa
Visibilitat 10 km o més
Núvols disperses a una alçada de 1500 ft

METAR: TNCC 070800Z 10012KT 9999 SCT015 27/24 Q1012 NOSIG

Hora: 04:32 (08:32 UTC)

Pronòstic

L'informe es va fer fa 3 hores i 17 minuts, a les 05:15 UTC
Pronòstic vàlid del 07 a les 06 UTC al 08 a les 06 UTC
Vent 13 kt del Est
Visibilitat 10 km o més
Núvols disperses a una alçada de 1500 ft
Cel ennuvolat a una alçada de 4000 ft

TAF: TNCC 070515Z 0706/0806 10013KT 9999 SCT015 BKN040

Observacions i pronòstics meteorològics de més de 4000 aeroports (METAR i TAF).

Les estacions disponibles són els punts grocs i vermells al mapa.

Posi el ratolí al punt desitjat per veure el nom de l'estació.

Feu clic per veure les observacions i els pronòstics meteorològics.

Per canviar el mapa: feu clic els botons verds amb una creu de color negre per apropar; al botó verd amb un guió per allunyar la imatge; o en les fletxes verdes per a mapes adjacents.


METAR-TAF: